Pagrindinis puslapis
METAR-TAF:

METAR-TAF

Oro uostai :

Stavangeris, Norvegija

platuma: 58-53N, ilguma: 005-38E, Aukštis: 0 m

Dabartinis oras

Ataskaita buvo paskelbta 27 minutes, ne 08:20 UTC
Vėjas 5 kt iš Pietryčių
Temperatūra 8°C
Drėgmė 87%
Slėgis 1000 hPa
Matomumas 10 km arba daugiau
Mažai debesys ne aukštis 1800 ft, aukštai iškilę kamuoliniai debesys.
Su prošvaistėmis ne aukštis 2700 ft
Liūtis kaimynystėje

METAR: ENZV 290820Z 13005KT 9999 VCSH FEW018TCU BKN027 08/06 Q1000 TEMPO SHRA

Laikas: 09:47 (08:47 UTC)

Prognozė

Prognozė galioja nuo 29 metu 06 UTC su 30 metu 06 UTC
Vėjas 6 kt iš Pietryčių
Matomumas 10 km arba daugiau
Mažai debesys ne aukštis 1200 ft, aukštai iškilę kamuoliniai debesys.
Su prošvaistėmis ne aukštis 3000 ft
lietus
Laikinai
nuo 29 metu 06 UTC su 29 metu 09 UTC
Su prošvaistėmis ne aukštis 1500 ft, Liūtiniai kamuoliniai debesys.
lietus

TAF: ENZV 2906/3006 13006KT 9999 -SHRA FEW012TCU BKN030 TEMPO 2906/2909 SHRA BKN015CB

Orai ataskaitas ir orų prognozės (METAR, TAF).

turimą stotys yra geltonos ir raudonos taškus žemėlapyje.

Perkelti pele per norėdami pamatyti stoties vardą.

Tada spustelėkite, norėdami matyti oro stebėjimo ir prognozės.

Norėdami pakeisti žemėlapį: spustelėkite ant žalios mygtukų su juodo kryžiaus žemyn,; žalią mygtuką su brūkšneliu, jei norite nutolinti; arba žalių rodyklių gretimoms žemėlapius.


METAR-TAF: